createdAt,value
2022-09-04T00:01:55.214Z,2.78
2022-09-04T00:04:07.920Z,2.63
2022-09-04T00:06:17.842Z,2.50
2022-09-04T00:08:31.637Z,2.75
2022-09-04T00:10:38.613Z,2.88
2022-09-04T00:12:49.001Z,3.08
2022-09-04T00:15:18.952Z,3.90
2022-09-04T00:17:33.839Z,3.03
2022-09-04T00:19:48.147Z,2.17
2022-09-04T00:21:58.589Z,3.33
2022-09-04T00:24:05.225Z,2.47
2022-09-04T00:26:12.905Z,3.13
2022-09-04T00:28:27.377Z,3.97
2022-09-04T00:30:29.175Z,2.90
2022-09-04T00:32:51.906Z,2.80
2022-09-04T00:35:17.572Z,2.10
2022-09-04T00:37:23.218Z,2.00
2022-09-04T00:39:41.381Z,3.03
2022-09-04T00:42:09.900Z,3.03
2022-09-04T00:44:35.371Z,2.17
2022-09-04T00:46:44.573Z,2.15
2022-09-04T00:49:14.414Z,1.90
2022-09-04T00:51:19.565Z,2.97
2022-09-04T00:53:51.175Z,2.65
2022-09-04T00:56:15.435Z,1.95
2022-09-04T00:58:52.684Z,2.00
2022-09-04T01:01:02.256Z,1.73
2022-09-04T01:03:35.379Z,3.20
2022-09-04T01:06:37.745Z,2.00
2022-09-04T01:09:24.949Z,2.13
2022-09-04T01:11:33.253Z,2.50
2022-09-04T01:13:42.293Z,2.15
2022-09-04T01:15:59.424Z,3.30
2022-09-04T01:18:30.788Z,2.40
2022-09-04T01:20:51.108Z,3.70
2022-09-04T01:23:13.013Z,4.22
2022-09-04T01:25:20.840Z,4.88
2022-09-04T01:27:39.726Z,4.05
2022-09-04T01:30:05.826Z,5.18
2022-09-04T01:32:26.041Z,5.28
2022-09-04T01:35:05.576Z,6.72
2022-09-04T01:37:30.662Z,4.00
2022-09-04T01:39:36.527Z,5.88
2022-09-04T01:41:49.074Z,5.68
2022-09-04T01:43:52.028Z,6.53
2022-09-04T01:46:05.058Z,6.07
2022-09-04T01:48:08.253Z,6.25
2022-09-04T01:50:27.891Z,6.78
2022-09-04T01:52:59.128Z,6.15
2022-09-04T01:55:47.640Z,5.82
2022-09-04T01:58:00.601Z,8.45
2022-09-04T02:00:13.768Z,7.55
2022-09-04T02:02:34.518Z,6.75
2022-09-04T02:04:59.762Z,8.73
2022-09-04T02:07:29.152Z,8.13
2022-09-04T02:09:44.534Z,7.60
2022-09-04T02:11:57.171Z,6.95
2022-09-04T02:14:22.301Z,8.65
2022-09-04T02:16:33.679Z,8.27
2022-09-04T02:18:50.361Z,7.60
2022-09-04T02:21:08.051Z,9.32
2022-09-04T02:23:22.005Z,6.60
2022-09-04T02:25:48.025Z,9.30
2022-09-04T02:27:56.221Z,6.80
2022-09-04T02:30:15.896Z,6.47
2022-09-04T02:32:27.150Z,7.57
2022-09-04T02:34:53.764Z,8.07
2022-09-04T02:37:19.583Z,10.07
2022-09-04T02:39:32.598Z,6.90
2022-09-04T02:41:58.182Z,7.80
2022-09-04T02:44:18.709Z,8.60
2022-09-04T02:46:43.285Z,9.65
2022-09-04T02:48:47.935Z,7.95
2022-09-04T02:51:13.975Z,9.57
2022-09-04T02:53:40.108Z,8.18
2022-09-04T02:56:19.111Z,7.70
2022-09-04T02:58:52.827Z,7.18
2022-09-04T03:01:30.929Z,6.47
2022-09-04T03:04:21.250Z,7.28
2022-09-04T03:06:52.265Z,6.53
2022-09-04T03:09:06.242Z,6.47
2022-09-04T03:11:19.314Z,6.97
2022-09-04T03:13:32.353Z,6.40
2022-09-04T03:15:56.666Z,7.82
2022-09-04T03:18:16.817Z,8.45
2022-09-04T03:20:25.244Z,6.32
2022-09-04T03:22:36.334Z,7.97
2022-09-04T03:24:49.963Z,6.50
2022-09-04T03:26:59.909Z,5.30
2022-09-04T03:29:25.275Z,5.43
2022-09-04T03:31:51.619Z,5.47
2022-09-04T03:34:12.166Z,5.85
2022-09-04T03:36:34.755Z,6.22
2022-09-04T03:39:04.556Z,5.93
2022-09-04T03:41:18.144Z,9.45
2022-09-04T03:43:31.887Z,6.70
2022-09-04T03:46:07.445Z,8.32
2022-09-04T03:48:30.079Z,7.65
2022-09-04T03:51:10.092Z,7.60
2022-09-04T03:53:36.424Z,9.15
2022-09-04T03:56:15.234Z,9.65
2022-09-04T03:58:43.696Z,7.78
2022-09-04T04:01:06.482Z,7.53
2022-09-04T04:03:55.899Z,10.05
2022-09-04T04:06:16.939Z,8.82
2022-09-04T04:08:46.662Z,8.23
2022-09-04T04:11:24.188Z,8.05
2022-09-04T04:13:47.093Z,9.65
2022-09-04T04:16:00.132Z,6.28
2022-09-04T04:18:17.048Z,6.65
2022-09-04T04:20:36.692Z,5.65
2022-09-04T04:22:56.522Z,5.38
2022-09-04T04:25:25.342Z,6.15
2022-09-04T04:27:46.182Z,5.72
2022-09-04T04:30:05.170Z,7.68
2022-09-04T04:32:20.762Z,8.18
2022-09-04T04:34:34.652Z,7.10
2022-09-04T04:36:48.412Z,5.85
2022-09-04T04:39:07.726Z,6.32
2022-09-04T04:42:05.596Z,6.00
2022-09-04T04:44:16.233Z,5.97
2022-09-04T04:46:55.481Z,6.75
2022-09-04T04:49:28.531Z,5.38
2022-09-04T04:51:47.073Z,5.75
2022-09-04T04:54:28.710Z,5.65
2022-09-04T04:57:09.047Z,7.70
2022-09-04T04:59:31.100Z,6.15
2022-09-04T05:01:50.787Z,7.72
2022-09-04T05:04:34.098Z,4.05
2022-09-04T05:06:47.744Z,2.95
2022-09-04T05:09:09.208Z,2.58
2022-09-04T05:11:26.602Z,2.63
2022-09-04T05:13:53.681Z,2.60
2022-09-04T05:16:18.108Z,2.42
2022-09-04T05:18:42.734Z,2.80
2022-09-04T05:20:53.954Z,2.70
2022-09-04T05:23:13.731Z,3.00
2022-09-04T05:25:47.260Z,1.50
2022-09-04T05:28:25.405Z,2.20
2022-09-04T05:30:38.087Z,1.88
2022-09-04T05:32:53.697Z,2.20
2022-09-04T05:35:15.650Z,3.10
2022-09-04T05:37:27.771Z,2.20
2022-09-04T05:39:41.450Z,2.20
2022-09-04T05:42:06.789Z,2.38
2022-09-04T05:44:22.378Z,1.95
2022-09-04T05:46:36.174Z,2.00
2022-09-04T05:49:18.006Z,2.42
2022-09-04T05:51:46.984Z,3.00
2022-09-04T05:54:14.440Z,1.92
2022-09-04T05:56:47.287Z,2.35
2022-09-04T05:59:01.347Z,2.30
2022-09-04T06:01:23.610Z,2.08
2022-09-04T06:03:44.374Z,2.50
2022-09-04T06:06:07.573Z,2.40
2022-09-04T06:08:43.311Z,2.30
2022-09-04T06:10:50.001Z,2.15
2022-09-04T06:13:29.061Z,2.05
2022-09-04T06:15:44.250Z,2.47
2022-09-04T06:18:03.828Z,2.50
2022-09-04T06:20:16.354Z,2.05
2022-09-04T06:22:48.593Z,2.70
2022-09-04T06:25:15.634Z,2.47
2022-09-04T06:27:51.462Z,2.47
2022-09-04T06:30:09.373Z,2.67
2022-09-04T06:32:34.328Z,2.60
2022-09-04T06:35:00.801Z,3.35
2022-09-04T06:37:09.330Z,2.95
2022-09-04T06:39:26.066Z,2.50
2022-09-04T06:41:46.998Z,2.72
2022-09-04T06:44:13.438Z,2.97
2022-09-04T06:46:24.973Z,2.40
2022-09-04T06:48:42.134Z,3.58
2022-09-04T06:50:56.805Z,2.70
2022-09-04T06:53:21.497Z,3.33
2022-09-04T06:55:30.851Z,3.00
2022-09-04T06:57:46.783Z,3.42
2022-09-04T07:00:10.110Z,2.78
2022-09-04T07:02:33.377Z,2.78
2022-09-04T07:04:44.629Z,2.97
2022-09-04T07:07:18.606Z,2.85
2022-09-04T07:09:27.793Z,2.55
2022-09-04T07:11:44.597Z,2.40
2022-09-04T07:13:56.190Z,2.63
2022-09-04T07:15:57.676Z,2.80
2022-09-04T07:18:26.486Z,2.55
2022-09-04T07:20:56.343Z,2.50
2022-09-04T07:23:32.203Z,2.28
2022-09-04T07:25:43.948Z,2.28
2022-09-04T07:27:55.753Z,3.45
2022-09-04T07:30:05.175Z,2.50
2022-09-04T07:32:22.920Z,2.58
2022-09-04T07:34:46.801Z,2.35
2022-09-04T07:36:55.698Z,2.40
2022-09-04T07:39:11.835Z,2.60
2022-09-04T07:41:25.659Z,5.03
2022-09-04T07:43:42.600Z,2.30
2022-09-04T07:45:57.841Z,2.50
2022-09-04T07:48:16.959Z,2.08
2022-09-04T07:50:22.259Z,3.38
2022-09-04T07:52:44.638Z,2.20
2022-09-04T07:55:07.345Z,2.70
2022-09-04T07:57:26.410Z,2.92
2022-09-04T07:59:47.256Z,2.38
2022-09-04T08:02:04.131Z,2.50
2022-09-04T08:04:11.610Z,2.95
2022-09-04T08:06:35.597Z,2.50
2022-09-04T08:08:46.248Z,3.55
2022-09-04T08:11:14.535Z,2.75
2022-09-04T08:13:27.675Z,2.60
2022-09-04T08:15:46.156Z,2.53
2022-09-04T08:18:12.855Z,2.78
2022-09-04T08:20:45.264Z,3.03
2022-09-04T08:23:02.087Z,2.65
2022-09-04T08:25:16.983Z,2.53
2022-09-04T08:27:57.015Z,3.03
2022-09-04T08:30:06.326Z,2.88
2022-09-04T08:32:16.577Z,2.30
2022-09-04T08:34:57.779Z,2.47
2022-09-04T08:37:20.913Z,2.25
2022-09-04T08:39:34.642Z,2.53
2022-09-04T08:41:51.553Z,3.03
2022-09-04T08:44:28.717Z,2.58
2022-09-04T08:46:52.899Z,2.55
2022-09-04T08:49:11.746Z,2.35
2022-09-04T08:51:47.470Z,2.35
2022-09-04T08:54:19.175Z,2.50
2022-09-04T08:56:56.737Z,2.50
2022-09-04T08:59:29.390Z,2.13
2022-09-04T09:01:51.412Z,2.20
2022-09-04T09:04:43.984Z,2.50
2022-09-04T09:07:13.685Z,2.35
2022-09-04T09:09:21.163Z,2.55
2022-09-04T09:11:41.496Z,2.47
2022-09-04T09:14:07.412Z,2.13
2022-09-04T09:16:42.947Z,3.33
2022-09-04T09:19:06.296Z,2.90
2022-09-04T09:21:31.118Z,1.90
2022-09-04T09:23:54.961Z,1.80
2022-09-04T09:26:20.184Z,1.77
2022-09-04T09:28:58.830Z,2.38
2022-09-04T09:31:28.801Z,1.67
2022-09-04T09:33:49.571Z,1.73
2022-09-04T09:36:21.657Z,2.03
2022-09-04T09:38:41.754Z,2.03
2022-09-04T09:40:56.084Z,2.03
2022-09-04T09:43:20.750Z,2.05
2022-09-04T09:45:46.092Z,1.80
2022-09-04T09:48:15.949Z,2.03
2022-09-04T09:50:27.927Z,1.70
2022-09-04T09:53:07.027Z,1.80
2022-09-04T09:55:29.265Z,1.80
2022-09-04T09:57:46.881Z,1.73
2022-09-04T10:00:10.594Z,1.80
2022-09-04T10:02:38.196Z,1.98
2022-09-04T10:05:11.138Z,1.88
2022-09-04T10:07:19.763Z,1.70
2022-09-04T10:09:27.955Z,1.73
2022-09-04T10:11:36.703Z,1.92
2022-09-04T10:14:08.188Z,1.75
2022-09-04T10:16:24.126Z,2.47
2022-09-04T10:18:37.785Z,1.90
2022-09-04T10:21:20.890Z,1.50
2022-09-04T10:23:47.273Z,1.98
2022-09-04T10:26:09.926Z,1.92
2022-09-04T10:28:51.031Z,1.50
2022-09-04T10:31:02.625Z,1.60
2022-09-04T10:33:34.019Z,1.90
2022-09-04T10:35:54.622Z,1.40
2022-09-04T10:38:15.887Z,1.50
2022-09-04T10:40:43.379Z,1.58
2022-09-04T10:43:13.979Z,1.50
2022-09-04T10:45:35.872Z,1.40
2022-09-04T10:48:02.232Z,1.63
2022-09-04T10:50:31.078Z,1.60
2022-09-04T10:53:02.778Z,2.05
2022-09-04T10:55:22.837Z,1.75
2022-09-04T10:57:59.841Z,1.45
2022-09-04T11:00:01.588Z,2.03
2022-09-04T11:02:41.112Z,1.80
2022-09-04T11:05:20.385Z,1.55
2022-09-04T11:07:29.890Z,1.80
2022-09-04T11:09:53.175Z,1.85
2022-09-04T11:12:46.482Z,1.50
2022-09-04T11:15:09.392Z,1.70
2022-09-04T11:17:52.981Z,1.63
2022-09-04T11:20:34.042Z,2.20
2022-09-04T11:22:47.755Z,2.40
2022-09-04T11:25:10.851Z,2.45
2022-09-04T11:28:10.659Z,3.25
2022-09-04T11:30:31.824Z,1.70
2022-09-04T11:32:39.461Z,1.80
2022-09-04T11:35:28.578Z,1.48
2022-09-04T11:37:45.273Z,1.70
2022-09-04T11:39:52.735Z,1.30
2022-09-04T11:42:20.430Z,1.42
2022-09-04T11:44:37.322Z,1.83
2022-09-04T11:47:16.990Z,1.65
2022-09-04T11:49:49.582Z,1.50
2022-09-04T11:52:14.882Z,1.38
2022-09-04T11:54:29.209Z,1.20
2022-09-04T11:56:50.869Z,1.38
2022-09-04T11:59:04.999Z,1.20
2022-09-04T12:01:18.600Z,1.30
2022-09-04T12:03:49.575Z,1.48
2022-09-04T12:06:15.364Z,1.30
2022-09-04T12:08:25.774Z,1.30
2022-09-04T12:10:52.460Z,1.40
2022-09-04T12:13:14.558Z,1.70
2022-09-04T12:15:46.734Z,1.30
2022-09-04T12:18:08.635Z,1.35
2022-09-04T12:20:28.415Z,1.20
2022-09-04T12:23:04.550Z,1.55
2022-09-04T12:25:43.793Z,1.23
2022-09-04T12:28:01.301Z,1.40
2022-09-04T12:30:14.392Z,1.50
2022-09-04T12:32:37.862Z,1.98
2022-09-04T12:34:56.516Z,1.98
2022-09-04T12:37:22.133Z,1.30
2022-09-04T12:39:43.033Z,1.42
2022-09-04T12:42:11.055Z,1.42
2022-09-04T12:44:38.049Z,1.17
2022-09-04T12:46:55.853Z,1.20
2022-09-04T12:49:28.672Z,1.20
2022-09-04T12:52:00.426Z,1.40
2022-09-04T12:54:45.355Z,1.60
2022-09-04T12:56:57.149Z,1.40
2022-09-04T12:59:32.527Z,1.40
2022-09-04T13:02:16.863Z,1.20
2022-09-04T13:04:31.595Z,2.30
2022-09-04T13:07:15.971Z,1.50
2022-09-04T13:09:35.154Z,1.20
2022-09-04T13:12:13.746Z,1.23
2022-09-04T13:14:49.533Z,1.40
2022-09-04T13:17:06.301Z,1.35
2022-09-04T13:19:50.710Z,1.52
2022-09-04T13:22:08.851Z,1.33
2022-09-04T13:24:36.457Z,1.00
2022-09-04T13:26:55.325Z,1.50
2022-09-04T13:29:16.994Z,1.05
2022-09-04T13:31:33.545Z,1.15
2022-09-04T13:34:04.320Z,1.00
2022-09-04T13:36:16.595Z,1.23
2022-09-04T13:38:36.072Z,1.30
2022-09-04T13:41:38.671Z,1.15
2022-09-04T13:44:18.645Z,1.08
2022-09-04T13:46:35.588Z,1.10
2022-09-04T13:48:52.065Z,1.27
2022-09-04T13:51:01.818Z,1.40
2022-09-04T13:53:34.719Z,1.15
2022-09-04T13:55:55.550Z,0.85
2022-09-04T13:58:21.367Z,1.13
2022-09-04T14:00:28.611Z,1.10
2022-09-04T14:02:35.072Z,1.00
2022-09-04T14:04:52.800Z,0.90
2022-09-04T14:07:10.823Z,1.20
2022-09-04T14:09:15.300Z,1.10
2022-09-04T14:11:25.508Z,1.10
2022-09-04T14:13:44.754Z,1.00
2022-09-04T14:16:06.812Z,1.50
2022-09-04T14:18:29.087Z,1.25
2022-09-04T14:21:01.363Z,1.27
2022-09-04T14:23:12.528Z,2.15
2022-09-04T14:25:15.862Z,1.00
2022-09-04T14:27:31.580Z,0.93
2022-09-04T14:30:06.123Z,1.20
2022-09-04T14:32:20.398Z,1.30
2022-09-04T14:34:35.889Z,1.00
2022-09-04T14:36:40.132Z,1.17
2022-09-04T14:39:06.649Z,1.20
2022-09-04T14:41:34.068Z,1.23
2022-09-04T14:44:07.542Z,1.20
2022-09-04T14:46:31.794Z,1.35
2022-09-04T14:48:40.707Z,1.23
2022-09-04T14:50:52.092Z,1.27
2022-09-04T14:53:06.519Z,1.33
2022-09-04T14:55:16.261Z,0.90
2022-09-04T14:57:29.164Z,1.05
2022-09-04T14:59:45.169Z,1.02
2022-09-04T15:02:02.946Z,1.30
2022-09-04T15:04:18.906Z,1.27
2022-09-04T15:06:30.231Z,1.20
2022-09-04T15:08:40.535Z,1.00
2022-09-04T15:10:53.759Z,1.02
2022-09-04T15:13:30.579Z,1.00
2022-09-04T15:15:39.604Z,1.33
2022-09-04T15:17:54.699Z,1.40
2022-09-04T15:19:59.879Z,2.15
2022-09-04T15:22:26.989Z,1.50
2022-09-04T15:24:43.750Z,1.40
2022-09-04T15:26:55.797Z,1.38
2022-09-04T15:29:27.401Z,1.50
2022-09-04T15:31:33.680Z,1.58
2022-09-04T15:33:42.778Z,2.17
2022-09-04T15:35:56.683Z,1.50
2022-09-04T15:38:30.374Z,1.60
2022-09-04T15:40:38.495Z,1.58
2022-09-04T15:42:49.969Z,1.40
2022-09-04T15:44:51.812Z,1.73
2022-09-04T15:47:23.247Z,1.55
2022-09-04T15:49:53.743Z,1.55
2022-09-04T15:52:03.288Z,2.45
2022-09-04T15:54:10.949Z,1.40
2022-09-04T15:56:25.185Z,1.50
2022-09-04T15:58:33.573Z,1.38
2022-09-04T16:01:00.065Z,1.35
2022-09-04T16:03:22.307Z,1.50
2022-09-04T16:05:36.036Z,1.65
2022-09-04T16:07:46.571Z,2.13
2022-09-04T16:10:01.190Z,1.30
2022-09-04T16:12:20.690Z,1.58
2022-09-04T16:14:45.250Z,2.00
2022-09-04T16:16:53.052Z,1.70
2022-09-04T16:19:05.058Z,1.73
2022-09-04T16:21:21.290Z,1.60
2022-09-04T16:23:38.328Z,1.42
2022-09-04T16:25:51.718Z,2.08
2022-09-04T16:28:03.926Z,1.52
2022-09-04T16:30:09.090Z,1.60
2022-09-04T16:32:18.333Z,1.55
2022-09-04T16:34:39.659Z,1.80
2022-09-04T16:36:46.108Z,1.80
2022-09-04T16:39:00.573Z,1.70
2022-09-04T16:41:11.859Z,1.50
2022-09-04T16:43:33.076Z,1.67
2022-09-04T16:46:10.121Z,1.70
2022-09-04T16:48:34.617Z,1.55
2022-09-04T16:50:51.899Z,1.30
2022-09-04T16:53:12.634Z,1.52
2022-09-04T16:55:27.152Z,1.33
2022-09-04T16:57:54.619Z,1.60
2022-09-04T17:00:09.579Z,1.50
2022-09-04T17:02:24.120Z,1.05
2022-09-04T17:05:03.957Z,1.27
2022-09-04T17:07:08.865Z,1.40
2022-09-04T17:09:42.248Z,1.77
2022-09-04T17:11:55.328Z,1.00
2022-09-04T17:14:15.315Z,1.27
2022-09-04T17:16:22.313Z,1.42
2022-09-04T17:18:28.353Z,1.58
2022-09-04T17:21:17.514Z,1.40
2022-09-04T17:28:59.006Z,1.40
2022-09-04T17:29:09.208Z,1.13
2022-09-04T17:29:09.931Z,1.52
2022-09-04T17:30:46.981Z,1.55
2022-09-04T17:38:51.035Z,1.60
2022-09-04T17:40:46.472Z,1.58
2022-09-04T17:40:48.436Z,1.70
2022-09-04T17:41:39.957Z,1.50
2022-09-04T17:44:03.532Z,2.05
2022-09-04T17:46:20.798Z,2.35
2022-09-04T17:48:37.900Z,2.33
2022-09-04T17:50:52.495Z,2.25
2022-09-04T17:53:08.150Z,2.50
2022-09-04T17:55:16.673Z,2.30
2022-09-04T17:57:53.491Z,2.60
2022-09-04T18:00:06.750Z,2.55
2022-09-04T18:02:28.665Z,2.47
2022-09-04T18:04:34.904Z,2.20
2022-09-04T18:06:45.491Z,2.38
2022-09-04T18:08:57.294Z,2.00
2022-09-04T18:11:08.042Z,2.42
2022-09-04T18:13:41.867Z,1.70
2022-09-04T18:16:18.638Z,2.08
2022-09-04T18:18:43.868Z,2.10
2022-09-04T18:21:26.867Z,2.00
2022-09-04T18:23:51.516Z,1.90
2022-09-04T18:26:40.615Z,2.22
2022-09-04T18:28:55.427Z,1.73
2022-09-04T18:37:06.172Z,3.33
2022-09-04T18:37:15.980Z,1.73
2022-09-04T18:37:25.656Z,1.63
2022-09-04T18:38:51.922Z,1.50
2022-09-04T18:43:34.598Z,1.77
2022-09-04T18:50:25.371Z,1.90
2022-09-04T18:50:32.731Z,1.60
2022-09-04T18:50:50.179Z,2.47
2022-09-04T18:51:38.453Z,2.20
2022-09-04T18:53:50.107Z,3.15
2022-09-04T18:56:06.206Z,2.00
2022-09-04T18:58:23.691Z,3.67
2022-09-04T19:00:48.641Z,1.80
2022-09-04T19:03:04.640Z,1.65
2022-09-04T19:05:14.070Z,1.92
2022-09-04T19:07:29.992Z,3.30
2022-09-04T19:09:55.662Z,3.55
2022-09-04T19:12:08.591Z,3.28
2022-09-04T19:14:15.515Z,2.83
2022-09-04T19:16:31.782Z,2.65
2022-09-04T19:21:14.373Z,2.47
2022-09-04T19:23:32.485Z,2.25
2022-09-04T19:25:40.463Z,2.67
2022-09-04T19:28:06.845Z,2.28
2022-09-04T19:30:25.274Z,2.45
2022-09-04T19:32:39.743Z,2.28
2022-09-04T19:34:47.344Z,2.05
2022-09-04T19:36:59.100Z,2.33
2022-09-04T19:45:54.732Z,3.28
2022-09-04T19:45:59.170Z,2.40
2022-09-04T19:46:16.320Z,2.40
2022-09-04T19:47:31.400Z,2.30
2022-09-04T19:52:23.711Z,2.58
2022-09-04T19:53:31.034Z,2.25
2022-09-04T19:54:44.796Z,1.75
2022-09-04T19:57:33.315Z,2.88
2022-09-04T19:59:45.538Z,1.80
2022-09-04T20:01:52.146Z,1.77
2022-09-04T20:04:12.529Z,2.30
2022-09-04T20:06:21.470Z,2.45
2022-09-04T20:08:31.171Z,1.95
2022-09-04T20:10:45.363Z,3.17
2022-09-04T20:12:53.466Z,2.53
2022-09-04T20:15:12.655Z,2.30
2022-09-04T20:17:39.053Z,2.47
2022-09-04T20:19:51.596Z,2.67
2022-09-04T20:22:05.643Z,2.67
2022-09-04T20:24:15.971Z,2.75
2022-09-04T20:26:30.968Z,2.17
2022-09-04T20:28:54.640Z,2.25
2022-09-04T20:31:35.505Z,2.20
2022-09-04T20:33:40.701Z,2.72
2022-09-04T20:35:59.921Z,2.28
2022-09-04T20:38:23.317Z,2.47
2022-09-04T20:40:35.205Z,3.22
2022-09-04T20:42:44.530Z,3.22
2022-09-04T20:52:37.614Z,2.95
2022-09-04T20:52:45.422Z,2.70
2022-09-04T20:52:49.564Z,3.50
2022-09-04T20:53:05.371Z,2.78
2022-09-04T20:54:56.708Z,2.72
2022-09-04T21:00:53.365Z,2.50
2022-09-04T21:03:13.906Z,3.17
2022-09-04T21:03:17.385Z,2.63
2022-09-04T21:05:02.044Z,2.97
2022-09-04T21:07:33.200Z,3.72
2022-09-04T21:10:09.567Z,3.03
2022-09-04T21:12:42.615Z,3.58
2022-09-04T21:14:50.924Z,4.72
2022-09-04T21:17:33.858Z,4.53
2022-09-04T21:19:58.677Z,3.70
2022-09-04T21:22:32.670Z,2.95
2022-09-04T21:24:40.915Z,3.83
2022-09-04T21:27:00.312Z,5.93
2022-09-04T21:29:32.146Z,5.88
2022-09-04T21:32:11.293Z,6.65
2022-09-04T21:34:44.478Z,7.70
2022-09-04T21:36:59.482Z,6.10
2022-09-04T21:39:28.672Z,4.28
2022-09-04T21:41:45.512Z,5.03
2022-09-04T21:44:21.567Z,3.15
2022-09-04T21:46:35.606Z,3.65
2022-09-04T21:48:57.414Z,2.60
2022-09-04T21:51:28.387Z,4.13
2022-09-04T21:53:55.172Z,2.97
2022-09-04T22:00:16.096Z,2.25
2022-09-04T22:02:42.627Z,2.58
2022-09-04T22:02:44.603Z,2.40
2022-09-04T22:04:44.433Z,2.30
2022-09-04T22:13:04.504Z,2.30
2022-09-04T22:13:31.879Z,2.33
2022-09-04T22:13:40.088Z,2.97
2022-09-04T22:15:02.772Z,3.75
2022-09-04T22:17:14.980Z,3.67
2022-09-04T22:19:19.176Z,3.47
2022-09-04T22:21:44.302Z,3.33
2022-09-04T22:24:00.868Z,5.03
2022-09-04T22:26:24.641Z,4.05
2022-09-04T22:28:52.063Z,3.47
2022-09-04T22:31:29.198Z,3.35
2022-09-04T22:34:15.650Z,3.05
2022-09-04T22:36:40.735Z,2.85
2022-09-04T22:38:53.609Z,2.85
2022-09-04T22:41:24.659Z,2.00
2022-09-04T22:43:28.636Z,2.22
2022-09-04T22:46:03.213Z,2.78
2022-09-04T22:48:35.627Z,2.55
2022-09-04T22:50:54.516Z,6.30
2022-09-04T22:53:18.933Z,1.98
2022-09-04T22:56:23.497Z,1.83
2022-09-04T22:58:50.825Z,2.30
2022-09-04T23:01:18.518Z,3.15
2022-09-04T23:03:49.841Z,2.08
2022-09-04T23:12:37.589Z,2.15
2022-09-04T23:13:42.211Z,2.10
2022-09-04T23:13:47.725Z,1.77
2022-09-04T23:15:08.813Z,2.03
2022-09-04T23:17:42.024Z,2.08
2022-09-04T23:26:30.969Z,2.97
2022-09-04T23:26:47.716Z,3.47
2022-09-04T23:26:54.236Z,3.30
2022-09-04T23:28:08.719Z,3.42
2022-09-04T23:30:31.408Z,3.40
2022-09-04T23:33:10.364Z,2.70
2022-09-04T23:35:24.804Z,2.88
2022-09-04T23:38:20.852Z,2.55
2022-09-04T23:40:53.563Z,2.40
2022-09-04T23:43:13.783Z,3.03
2022-09-04T23:45:27.332Z,2.25
2022-09-04T23:47:47.823Z,3.08
2022-09-04T23:50:02.053Z,2.05
2022-09-04T23:52:48.727Z,3.00
2022-09-04T23:55:07.901Z,3.17
2022-09-04T23:57:26.520Z,2.40
2022-09-04T23:59:47.911Z,2.22
